Time;durP1;ratioP1;P1;durP2;ratioP2;P2;SDS_P1;SDS_P2;PMS_P1;PMS_P2;Temp;Humidity;BMP_temperature;BMP_pressure;BME280_temperature;BME280_humidity;BME280_pressure;Samples;Min_cycle;Max_cycle;Signal;HPM_P1;HPM_P2
2022/09/30 00:01:46;;;;;;;19.67;7.57;;;8.40;99.90;;;;;;5051546;28;20037;-62
2022/09/30 00:04:22;;;;;;;18.05;9.68;;;8.40;99.90;;;;;;5052373;28;20393;-63
2022/09/30 00:06:49;;;;;;;26.55;10.98;;;8.40;99.90;;;;;;5051983;28;20049;-62
2022/09/30 00:09:15;;;;;;;20.60;9.45;;;8.30;99.90;;;;;;5050947;28;20397;-63
2022/09/30 00:11:41;;;;;;;15.45;6.63;;;8.30;99.90;;;;;;5051361;28;20401;-62
2022/09/30 00:14:19;;;;;;;10.82;5.70;;;8.30;99.90;;;;;;5051268;28;20550;-62
2022/09/30 00:16:45;;;;;;;10.38;3.90;;;8.30;99.90;;;;;;5050936;28;20053;-63
2022/09/30 00:19:11;;;;;;;7.03;2.97;;;8.20;99.90;;;;;;5052161;28;20068;-62
2022/09/30 00:21:36;;;;;;;7.32;4.18;;;8.20;99.90;;;;;;5051135;28;20053;-62
2022/09/30 00:24:04;;;;;;;8.73;4.82;;;8.10;99.90;;;;;;5052038;28;20041;-63
2022/09/30 00:26:30;;;;;;;9.57;4.80;;;8.10;99.90;;;;;;5052018;28;20033;-62
2022/09/30 00:28:58;;;;;;;9.73;4.70;;;8.10;99.90;;;;;;5049918;28;20041;-62
2022/09/30 00:31:26;;;;;;;11.25;4.50;;;8.00;99.90;;;;;;5051890;28;20154;-62
2022/09/30 00:34:06;;;;;;;8.60;3.80;;;8.10;99.90;;;;;;5051907;28;20429;-62
2022/09/30 00:36:33;;;;;;;7.68;3.20;;;8.00;99.90;;;;;;5051360;28;20127;-62
2022/09/30 00:38:59;;;;;;;5.68;2.50;;;8.00;99.90;;;;;;5050673;28;20048;-62
2022/09/30 00:41:31;;;;;;;4.20;2.20;;;8.00;99.90;;;;;;5033908;28;20053;-62
2022/09/30 00:43:56;;;;;;;5.55;2.30;;;8.00;99.90;;;;;;5050173;28;20044;-63
2022/09/30 00:46:38;;;;;;;5.07;2.13;;;8.00;99.90;;;;;;5050598;28;20389;-62
2022/09/30 00:49:12;;;;;;;4.63;2.40;;;8.00;99.90;;;;;;5051723;28;20072;-62
2022/09/30 00:51:44;;;;;;;4.33;2.33;;;7.90;99.90;;;;;;5050260;28;20045;-62
2022/09/30 00:54:14;;;;;;;5.53;2.08;;;7.90;99.90;;;;;;5050896;28;20760;-62
2022/09/30 00:56:45;;;;;;;4.72;2.38;;;7.90;99.90;;;;;;5050046;28;20049;-63
2022/09/30 00:59:17;;;;;;;5.72;2.30;;;7.90;99.90;;;;;;5051896;28;20151;-61
2022/09/30 01:01:44;;;;;;;5.30;2.10;;;7.90;99.90;;;;;;5052220;28;20123;-62
2022/09/30 01:04:13;;;;;;;5.30;2.30;;;7.80;99.90;;;;;;5049796;28;20039;-62
2022/09/30 01:06:40;;;;;;;4.70;2.10;;;7.80;99.90;;;;;;5050753;28;20037;-62
2022/09/30 01:09:06;;;;;;;3.92;2.10;;;7.80;99.90;;;;;;5033413;28;20405;-62
2022/09/30 01:11:32;;;;;;;4.90;2.10;;;7.80;99.90;;;;;;5050639;28;20049;-62
2022/09/30 01:14:36;;;;;;;3.75;1.70;;;7.80;99.90;;;;;;5051704;28;20367;-62
2022/09/30 01:17:27;;;;;;;4.63;2.35;;;7.80;99.90;;;;;;5039479;28;20493;-62
2022/09/30 01:19:59;;;;;;;8.52;2.58;;;7.60;99.90;;;;;;5051304;28;20037;-62
2022/09/30 01:22:43;;;;;;;4.47;2.20;;;7.70;99.90;;;;;;5054081;28;20049;-62
2022/09/30 01:25:11;;;;;;;5.40;2.25;;;7.70;99.90;;;;;;5053099;28;20433;-62
2022/09/30 01:27:43;;;;;;;6.80;2.60;;;7.70;99.90;;;;;;5054345;28;20040;-62
2022/09/30 01:30:46;;;;;;;4.43;2.53;;;7.70;99.90;;;;;;5054013;28;20127;-62
2022/09/30 01:33:30;;;;;;;4.75;2.60;;;7.70;99.90;;;;;;5054461;28;20045;-62
2022/09/30 01:36:34;;;;;;;5.93;2.53;;;7.70;99.90;;;;;;5053882;28;20098;-62
2022/09/30 01:39:12;;;;;;;4.68;2.03;;;7.80;99.90;;;;;;5049472;28;20394;-62
2022/09/30 01:41:53;;;;;;;7.53;2.80;;;7.80;99.90;;;;;;5054006;28;20124;-62
2022/09/30 01:44:45;;;;;;;4.45;2.30;;;7.80;99.90;;;;;;5053574;28;20041;-62
2022/09/30 01:47:17;;;;;;;4.53;1.98;;;7.80;99.90;;;;;;5051913;28;20091;-62
2022/09/30 01:49:47;;;;;;;4.88;2.45;;;7.80;99.90;;;;;;5051974;28;20053;-62
2022/09/30 01:52:19;;;;;;;5.47;2.70;;;7.80;99.90;;;;;;5052931;28;20041;-62
2022/09/30 01:54:57;;;;;;;7.70;2.30;;;7.80;99.90;;;;;;5053036;28;20057;-62
2022/09/30 01:57:38;;;;;;;6.72;2.45;;;7.80;99.90;;;;;;5053121;28;20036;-62
2022/09/30 02:00:09;;;;;;;5.07;2.65;;;7.80;99.90;;;;;;5054045;28;20481;-62
2022/09/30 02:03:01;;;;;;;5.32;2.25;;;7.80;99.90;;;;;;5054623;28;20044;-62
2022/09/30 02:05:34;;;;;;;5.30;1.83;;;7.90;99.90;;;;;;5053192;28;20484;-62
2022/09/30 02:08:06;;;;;;;4.13;2.10;;;7.80;99.90;;;;;;5053382;28;20036;-62
2022/09/30 02:10:38;;;;;;;6.25;2.08;;;7.80;99.90;;;;;;5054574;28;20037;-62
2022/09/30 02:13:13;;;;;;;5.90;2.25;;;7.90;99.90;;;;;;5054221;28;20033;-62
2022/09/30 02:15:45;;;;;;;5.97;2.58;;;7.90;99.90;;;;;;5052512;28;20041;-62
2022/09/30 02:18:20;;;;;;;4.55;1.92;;;7.90;99.90;;;;;;5053216;28;20080;-62
2022/09/30 02:20:51;;;;;;;4.30;2.25;;;7.90;99.90;;;;;;5052022;28;20052;-62
2022/09/30 02:23:24;;;;;;;5.35;2.70;;;7.90;99.90;;;;;;5054348;28;20040;-62
2022/09/30 02:26:04;;;;;;;5.38;2.22;;;7.90;99.90;;;;;;5053020;28;20052;-62
2022/09/30 02:28:31;;;;;;;5.45;2.35;;;8.00;99.90;;;;;;5052942;28;20075;-62
2022/09/30 02:31:00;;;;;;;5.63;2.58;;;8.00;99.90;;;;;;5053459;28;20164;-62
2022/09/30 02:33:46;;;;;;;9.13;3.25;;;8.00;99.90;;;;;;5052715;28;20043;-62
2022/09/30 02:36:30;;;;;;;7.97;3.00;;;8.10;99.90;;;;;;5053281;28;20037;-62
2022/09/30 02:39:08;;;;;;;7.30;2.90;;;8.10;99.90;;;;;;5053933;28;20098;-62
2022/09/30 02:41:42;;;;;;;5.55;2.83;;;8.10;99.90;;;;;;5052360;28;20413;-62
2022/09/30 02:44:08;;;;;;;5.00;2.80;;;8.10;99.90;;;;;;5053062;28;20055;-62
2022/09/30 02:46:59;;;;;;;5.90;2.60;;;8.10;99.90;;;;;;5052754;28;20059;-62
2022/09/30 02:49:45;;;;;;;5.15;2.35;;;8.20;99.90;;;;;;5052851;28;20041;-62
2022/09/30 02:52:48;;;;;;;7.47;2.78;;;8.20;99.90;;;;;;5053369;28;20568;-62
2022/09/30 02:55:24;;;;;;;4.75;2.30;;;8.20;99.90;;;;;;5053457;28;20095;-62
2022/09/30 02:58:19;;;;;;;4.90;2.40;;;8.20;99.90;;;;;;5051143;28;20497;-62
2022/09/30 03:00:46;;;;;;;5.47;2.60;;;8.20;99.90;;;;;;5052566;28;20045;-62
2022/09/30 03:03:18;;;;;;;6.00;3.08;;;8.20;99.90;;;;;;5051491;28;20076;-62
2022/09/30 03:05:44;;;;;;;7.22;2.92;;;8.20;99.90;;;;;;5053513;28;20099;-62
2022/09/30 03:08:16;;;;;;;7.95;2.63;;;8.20;99.90;;;;;;5052176;28;20036;-62
2022/09/30 03:10:43;;;;;;;5.43;2.42;;;8.30;99.90;;;;;;5052796;28;20114;-62
2022/09/30 03:13:31;;;;;;;7.10;2.70;;;8.30;99.90;;;;;;5032223;28;20052;-62
2022/09/30 03:16:25;;;;;;;5.20;3.00;;;8.30;99.90;;;;;;5031937;28;20042;-62
2022/09/30 03:18:57;;;;;;;5.25;2.88;;;8.30;99.90;;;;;;5032306;28;20037;-62
2022/09/30 03:22:20;;;;;;;5.93;3.13;;;8.30;99.90;;;;;;5032739;28;20060;-62
2022/09/30 03:24:45;;;;;;;7.53;3.28;;;8.30;99.90;;;;;;5030088;28;20383;-63
2022/09/30 03:27:26;;;;;;;4.93;2.60;;;8.30;99.90;;;;;;5045465;28;20037;-62
2022/09/30 03:30:06;;;;;;;4.93;2.60;;;8.40;99.90;;;;;;5042733;28;20501;-62
2022/09/30 03:32:50;;;;;;;4.55;2.55;;;8.40;99.90;;;;;;5050860;28;20110;-62
2022/09/30 03:35:31;;;;;;;6.03;2.60;;;8.50;99.90;;;;;;5051397;28;20049;-62
2022/09/30 03:38:06;;;;;;;5.50;2.70;;;8.50;99.90;;;;;;5052818;28;20112;-62
2022/09/30 03:40:50;;;;;;;5.05;2.50;;;8.50;99.90;;;;;;5052458;28;20459;-62
2022/09/30 03:43:26;;;;;;;5.18;2.33;;;8.50;99.90;;;;;;5051969;28;20049;-62
2022/09/30 03:46:01;;;;;;;5.65;3.00;;;8.50;99.90;;;;;;5050643;28;20524;-62
2022/09/30 03:48:29;;;;;;;5.68;2.83;;;8.50;99.90;;;;;;5051549;28;20033;-62
2022/09/30 03:50:55;;;;;;;5.75;3.17;;;8.50;99.90;;;;;;5051407;28;20041;-62
2022/09/30 03:53:21;;;;;;;5.80;2.90;;;8.40;99.90;;;;;;5050698;28;20041;-62
2022/09/30 03:55:50;;;;;;;5.38;2.90;;;8.40;99.90;;;;;;5052251;28;20478;-62
2022/09/30 03:58:18;;;;;;;4.63;2.53;;;8.30;99.90;;;;;;5050915;28;20044;-62
2022/09/30 04:00:52;;;;;;;4.53;2.60;;;8.30;99.90;;;;;;5033691;28;20045;-62
2022/09/30 04:03:19;;;;;;;6.55;2.83;;;8.30;99.90;;;;;;5050958;28;20044;-62
2022/09/30 04:05:45;;;;;;;5.10;3.35;;;8.20;99.90;;;;;;5052191;28;20395;-62
2022/09/30 04:08:11;;;;;;;7.45;3.67;;;8.20;99.90;;;;;;5050550;28;20041;-62
2022/09/30 04:10:41;;;;;;;5.10;2.80;;;8.20;99.90;;;;;;5052334;28;20508;-62
2022/09/30 04:13:07;;;;;;;4.97;3.10;;;8.10;99.90;;;;;;5052126;28;20048;-62
2022/09/30 04:15:34;;;;;;;6.00;2.80;;;8.10;99.90;;;;;;5051092;28;20508;-62
2022/09/30 04:18:00;;;;;;;5.10;2.58;;;8.00;99.90;;;;;;5050622;28;20493;-62
2022/09/30 04:20:26;;;;;;;4.95;2.90;;;8.00;99.90;;;;;;5083624;28;20049;-63
2022/09/30 04:22:51;;;;;;;6.93;3.28;;;8.00;99.90;;;;;;5084219;28;20545;-62
2022/09/30 04:25:17;;;;;;;5.85;3.65;;;8.00;99.90;;;;;;5051637;28;20040;-62
2022/09/30 04:27:43;;;;;;;6.80;4.00;;;8.00;99.90;;;;;;5050069;28;20094;-62
2022/09/30 04:30:09;;;;;;;5.53;3.10;;;8.00;99.90;;;;;;5052196;28;20036;-63
2022/09/30 04:32:34;;;;;;;5.85;4.00;;;7.90;99.90;;;;;;5034295;28;20175;-62
2022/09/30 04:35:00;;;;;;;5.68;3.75;;;7.90;99.90;;;;;;5051175;28;20533;-62
2022/09/30 04:37:26;;;;;;;6.13;3.80;;;7.90;99.90;;;;;;5051804;28;20119;-62
2022/09/30 04:39:51;;;;;;;5.65;3.13;;;7.80;99.90;;;;;;5051476;28;20091;-62
2022/09/30 04:42:17;;;;;;;6.80;3.42;;;7.80;99.90;;;;;;5050907;28;20474;-63
2022/09/30 04:44:43;;;;;;;6.18;3.13;;;7.70;99.90;;;;;;5050863;28;20052;-62
2022/09/30 04:47:09;;;;;;;8.70;3.72;;;7.70;99.90;;;;;;5050410;28;20041;-62
2022/09/30 04:49:35;;;;;;;4.85;3.40;;;7.70;99.90;;;;;;5050682;28;20452;-62
2022/09/30 04:52:01;;;;;;;5.97;3.28;;;7.60;99.90;;;;;;5050476;28;20037;-62
2022/09/30 04:54:26;;;;;;;5.38;3.15;;;7.60;99.90;;;;;;5053947;28;20044;-62
2022/09/30 04:56:52;;;;;;;5.75;3.42;;;7.60;99.90;;;;;;5054998;28;20044;-62
2022/09/30 04:59:18;;;;;;;4.70;2.95;;;7.50;99.90;;;;;;5055714;28;20077;-62
2022/09/30 05:01:43;;;;;;;5.60;2.80;;;7.50;99.90;;;;;;5054426;28;20041;-62
2022/09/30 05:04:11;;;;;;;9.35;4.38;;;7.50;99.90;;;;;;5053620;28;20057;-62
2022/09/30 05:06:39;;;;;;;7.85;2.92;;;7.50;99.90;;;;;;5038097;28;20051;-63
2022/09/30 05:09:05;;;;;;;6.32;2.70;;;7.40;99.90;;;;;;5055395;28;20040;-63
2022/09/30 05:11:31;;;;;;;5.10;3.00;;;7.40;99.90;;;;;;5053451;28;20398;-62
2022/09/30 05:13:58;;;;;;;6.55;3.33;;;7.40;99.90;;;;;;5054069;28;20032;-63
2022/09/30 05:16:26;;;;;;;5.43;3.40;;;7.30;99.90;;;;;;5055309;28;20045;-62
2022/09/30 05:18:52;;;;;;;5.13;3.22;;;7.40;99.90;;;;;;5054698;28;20045;-62
2022/09/30 05:21:19;;;;;;;7.97;4.68;;;7.30;99.90;;;;;;5055120;28;20106;-63
2022/09/30 05:23:45;;;;;;;5.82;4.13;;;7.30;99.90;;;;;;5052875;28;20159;-62
2022/09/30 05:26:12;;;;;;;7.45;5.07;;;7.30;99.90;;;;;;5055730;28;20044;-62
2022/09/30 05:28:38;;;;;;;8.20;4.80;;;7.30;99.90;;;;;;5055686;28;20068;-63
2022/09/30 05:31:05;;;;;;;8.32;4.28;;;7.30;99.90;;;;;;5053371;28;20130;-62
2022/09/30 05:33:31;;;;;;;6.72;4.07;;;7.30;99.90;;;;;;5053988;28;20079;-62
2022/09/30 05:36:07;;;;;;;7.57;4.10;;;7.30;99.90;;;;;;5055041;28;20041;-63
2022/09/30 05:38:33;;;;;;;7.00;5.00;;;7.30;99.90;;;;;;5054336;28;20078;-62
2022/09/30 05:41:12;;;;;;;10.20;5.72;;;7.20;99.90;;;;;;5053686;28;20049;-62
2022/09/30 05:43:40;;;;;;;8.88;5.82;;;7.20;99.90;;;;;;5055116;28;20107;-62
2022/09/30 05:46:07;;;;;;;9.18;6.30;;;7.20;99.90;;;;;;5054032;28;20040;-62
2022/09/30 05:48:33;;;;;;;12.45;8.45;;;7.20;99.90;;;;;;5036905;28;20037;-62
2022/09/30 05:51:00;;;;;;;9.55;7.68;;;7.20;99.90;;;;;;5054935;28;20080;-62
2022/09/30 05:53:27;;;;;;;10.77;7.88;;;7.10;99.90;;;;;;5054096;28;20382;-63
2022/09/30 05:55:53;;;;;;;10.48;7.30;;;7.20;99.90;;;;;;5036696;28;20124;-62
2022/09/30 05:58:20;;;;;;;7.25;5.30;;;7.20;99.90;;;;;;5086894;28;20133;-62
2022/09/30 06:00:47;;;;;;;7.68;5.45;;;7.20;99.90;;;;;;5052556;28;20045;-63
2022/09/30 06:03:13;;;;;;;7.95;5.45;;;7.30;99.90;;;;;;5086875;28;20116;-63
2022/09/30 06:05:39;;;;;;;7.60;5.78;;;7.30;99.90;;;;;;5054025;28;20135;-63
2022/09/30 06:08:06;;;;;;;7.88;6.28;;;7.30;99.90;;;;;;5068844;28;20045;-62
2022/09/30 06:10:33;;;;;;;7.22;5.53;;;7.30;99.90;;;;;;5054521;28;20048;-62
2022/09/30 06:13:00;;;;;;;7.30;5.18;;;7.30;99.90;;;;;;5052280;28;20045;-62
2022/09/30 06:15:25;;;;;;;11.07;6.00;;;7.40;99.90;;;;;;5053041;28;20053;-62
2022/09/30 06:17:54;;;;;;;8.65;5.85;;;7.40;99.90;;;;;;5054217;28;20036;-63
2022/09/30 06:20:20;;;;;;;5.60;4.20;;;7.40;99.90;;;;;;5052339;28;20091;-62
2022/09/30 06:22:46;;;;;;;8.75;4.68;;;7.40;99.90;;;;;;5052764;28;20057;-62
2022/09/30 06:25:13;;;;;;;6.35;4.05;;;7.50;99.90;;;;;;5054214;28;20086;-62
2022/09/30 06:27:42;;;;;;;7.40;4.78;;;7.50;99.90;;;;;;5052277;28;20045;-62
2022/09/30 06:30:09;;;;;;;9.02;4.25;;;7.50;99.90;;;;;;5054054;28;20048;-62
2022/09/30 06:32:34;;;;;;;8.18;4.07;;;7.50;99.90;;;;;;5036044;28;20048;-62
2022/09/30 06:35:02;;;;;;;8.23;4.65;;;7.60;99.90;;;;;;5085021;28;20041;-62
2022/09/30 06:37:27;;;;;;;6.93;4.65;;;7.70;99.90;;;;;;5052647;28;20076;-62
2022/09/30 06:39:53;;;;;;;7.28;4.63;;;7.70;99.90;;;;;;5053833;28;20117;-62
2022/09/30 06:42:19;;;;;;;8.82;5.82;;;7.70;99.90;;;;;;5052730;28;20047;-62
2022/09/30 06:44:45;;;;;;;6.25;4.45;;;7.80;99.90;;;;;;5052755;28;20052;-62
2022/09/30 06:47:13;;;;;;;8.40;5.25;;;7.80;99.90;;;;;;5053897;28;20040;-62
2022/09/30 06:49:39;;;;;;;7.70;5.03;;;7.90;99.90;;;;;;5053089;28;20064;-62
2022/09/30 06:52:05;;;;;;;11.70;6.07;;;7.90;99.90;;;;;;5052696;28;20057;-62
2022/09/30 06:54:31;;;;;;;7.80;4.60;;;7.90;99.90;;;;;;5052589;28;20421;-62
2022/09/30 06:56:57;;;;;;;7.25;4.63;;;7.90;99.90;;;;;;5052663;28;20045;-62
2022/09/30 06:59:23;;;;;;;8.48;5.85;;;7.90;99.90;;;;;;5047977;28;20091;-63
2022/09/30 07:01:49;;;;;;;8.07;5.72;;;8.00;99.90;;;;;;5050911;28;20056;-62
2022/09/30 07:04:15;;;;;;;8.02;5.88;;;8.00;99.90;;;;;;5048852;28;20048;-62
2022/09/30 07:06:41;;;;;;;8.60;5.13;;;8.10;99.90;;;;;;5049904;28;20102;-62
2022/09/30 07:09:08;;;;;;;8.18;6.10;;;8.10;99.90;;;;;;5048804;28;20043;-63
2022/09/30 07:11:36;;;;;;;9.65;6.90;;;8.20;99.90;;;;;;5048496;28;20049;-63
2022/09/30 07:14:05;;;;;;;10.93;6.13;;;8.30;99.90;;;;;;5048343;28;20048;-63
2022/09/30 07:16:33;;;;;;;9.07;5.88;;;8.30;99.90;;;;;;5045087;28;20045;-63
2022/09/30 07:19:00;;;;;;;8.98;5.30;;;8.40;99.90;;;;;;5050994;28;20076;-63
2022/09/30 07:21:25;;;;;;;11.43;5.88;;;8.50;99.90;;;;;;5044129;28;20053;-63
2022/09/30 07:24:16;;;;;;;7.72;5.45;;;8.60;99.90;;;;;;5062461;28;20506;-63
2022/09/30 07:26:44;;;;;;;8.82;5.35;;;8.70;99.90;;;;;;5048474;28;20099;-63
2022/09/30 07:29:12;;;;;;;8.50;5.20;;;8.80;99.90;;;;;;5066332;28;20037;-63
2022/09/30 07:31:38;;;;;;;8.98;5.22;;;8.90;99.90;;;;;;5048700;28;20052;-63
2022/09/30 07:34:06;;;;;;;9.98;5.75;;;9.00;99.90;;;;;;5048851;28;20056;-63
2022/09/30 07:36:35;;;;;;;8.82;5.53;;;9.10;99.90;;;;;;5049473;28;20468;-63
2022/09/30 07:39:04;;;;;;;8.27;5.40;;;9.20;99.90;;;;;;5048373;28;20045;-64
2022/09/30 07:41:31;;;;;;;10.98;6.00;;;9.30;99.90;;;;;;5030995;28;20041;-63
2022/09/30 07:44:00;;;;;;;9.02;4.95;;;9.40;99.90;;;;;;5048404;28;20032;-62
2022/09/30 07:46:31;;;;;;;8.13;4.88;;;9.50;99.90;;;;;;5047625;28;20095;-63
2022/09/30 07:49:00;;;;;;;7.88;5.25;;;9.60;99.90;;;;;;5031581;28;20528;-63
2022/09/30 07:51:30;;;;;;;7.85;4.32;;;9.60;99.90;;;;;;5047847;28;20080;-63
2022/09/30 07:53:59;;;;;;;8.50;4.85;;;9.70;99.90;;;;;;5071399;28;20698;-63
2022/09/30 07:56:25;;;;;;;7.57;4.15;;;9.80;99.90;;;;;;5048815;28;20049;-63
2022/09/30 07:58:58;;;;;;;7.43;4.57;;;9.90;99.90;;;;;;5045752;28;20103;-63
2022/09/30 08:01:25;;;;;;;6.85;3.70;;;10.00;99.90;;;;;;5047843;28;20057;-63
2022/09/30 08:03:55;;;;;;;6.93;4.18;;;10.10;99.90;;;;;;5046884;28;20053;-63
2022/09/30 08:06:24;;;;;;;6.80;4.53;;;10.10;99.90;;;;;;5047578;28;20044;-62
2022/09/30 08:08:52;;;;;;;7.00;4.35;;;10.30;99.90;;;;;;5033523;28;20559;-62
2022/09/30 08:11:18;;;;;;;9.63;4.40;;;10.30;99.90;;;;;;5048112;28;20091;-63
2022/09/30 08:13:48;;;;;;;8.00;5.45;;;10.40;99.90;;;;;;5049481;28;20119;-63
2022/09/30 08:16:14;;;;;;;7.45;4.63;;;10.50;99.90;;;;;;5029807;28;20055;-63
2022/09/30 08:18:39;;;;;;;9.27;5.20;;;10.60;99.90;;;;;;5048731;28;20040;-63
2022/09/30 08:21:05;;;;;;;8.10;4.90;;;10.70;99.90;;;;;;5047412;28;20053;-63
2022/09/30 08:23:32;;;;;;;8.00;5.40;;;10.80;99.90;;;;;;5064531;28;20150;-63
2022/09/30 08:26:07;;;;;;;10.50;5.82;;;10.90;99.90;;;;;;5048183;28;20436;-62
2022/09/30 08:28:34;;;;;;;8.98;5.47;;;11.00;99.90;;;;;;5046006;28;20462;-63
2022/09/30 08:31:26;;;;;;;10.38;5.82;;;11.00;99.90;;;;;;5051189;28;20041;-63
2022/09/30 08:33:53;;;;;;;9.63;5.45;;;11.10;99.90;;;;;;5048609;28;20506;-63
2022/09/30 08:36:23;;;;;;;9.45;6.00;;;11.20;99.90;;;;;;5049454;28;20044;-63
2022/09/30 08:38:50;;;;;;;8.27;5.80;;;11.30;99.90;;;;;;5049702;28;20052;-63
2022/09/30 08:41:33;;;;;;;8.45;5.22;;;11.40;99.90;;;;;;5049375;28;20041;-62
2022/09/30 08:44:08;;;;;;;10.35;6.03;;;11.40;99.90;;;;;;5049696;28;20075;-62
2022/09/30 08:46:48;;;;;;;10.07;5.65;;;11.50;99.90;;;;;;5050926;28;20041;-63
2022/09/30 08:49:35;;;;;;;10.57;5.53;;;11.60;99.90;;;;;;5045397;28;21283;-63
2022/09/30 08:52:04;;;;;;;9.00;6.30;;;11.60;99.90;;;;;;5048786;28;20111;-62
2022/09/30 08:54:33;;;;;;;8.68;6.13;;;11.70;99.90;;;;;;5050428;28;20381;-62
2022/09/30 08:57:02;;;;;;;8.77;5.32;;;11.80;99.90;;;;;;5049357;28;20512;-62
2022/09/30 08:59:35;;;;;;;7.32;4.15;;;11.80;99.90;;;;;;5049888;28;20037;-62
2022/09/30 09:02:21;;;;;;;5.82;3.55;;;11.90;99.90;;;;;;5048003;28;20029;-62
2022/09/30 09:04:51;;;;;;;8.50;3.97;;;12.00;99.90;;;;;;5049685;28;20048;-63
2022/09/30 09:07:39;;;;;;;7.82;4.18;;;12.10;99.90;;;;;;5049880;28;20029;-63
2022/09/30 09:10:39;;;;;;;7.15;3.47;;;12.10;99.90;;;;;;5049910;28;20076;-63
2022/09/30 09:13:18;;;;;;;5.68;3.03;;;12.20;99.90;;;;;;5046361;28;20421;-62
2022/09/30 09:15:56;;;;;;;5.75;3.20;;;12.30;99.90;;;;;;5048485;28;20396;-63
2022/09/30 09:18:47;;;;;;;7.57;3.10;;;12.30;99.90;;;;;;5050859;28;20112;-64
2022/09/30 09:21:19;;;;;;;5.20;2.40;;;12.30;99.90;;;;;;5078757;28;20099;-63
2022/09/30 09:23:47;;;;;;;6.45;2.70;;;12.40;99.90;;;;;;5049688;28;20053;-63
2022/09/30 09:26:15;;;;;;;4.47;2.33;;;12.40;99.90;;;;;;5051324;28;20041;-63
2022/09/30 09:29:24;;;;;;;5.25;2.85;;;12.50;99.90;;;;;;5050474;28;20565;-63
2022/09/30 09:31:50;;;;;;;6.72;2.90;;;12.60;99.90;;;;;;5049412;28;20045;-63
2022/09/30 09:34:15;;;;;;;5.70;3.03;;;12.80;99.90;;;;;;5049899;28;20041;-63
2022/09/30 09:37:05;;;;;;;5.65;3.13;;;12.90;99.90;;;;;;5049902;28;20543;-63
2022/09/30 09:40:08;;;;;;;7.28;3.60;;;12.90;99.90;;;;;;5045181;28;20044;-63
2022/09/30 09:42:39;;;;;;;5.38;3.13;;;13.00;99.90;;;;;;5053604;28;20120;-63
2022/09/30 09:45:07;;;;;;;5.90;3.30;;;13.00;99.90;;;;;;5085671;28;20045;-63
2022/09/30 09:47:33;;;;;;;5.45;3.33;;;13.10;99.90;;;;;;5086505;28;20045;-63
2022/09/30 09:50:03;;;;;;;6.45;3.85;;;13.10;99.90;;;;;;5035939;28;20037;-63
2022/09/30 09:52:53;;;;;;;8.65;5.03;;;13.20;99.90;;;;;;5052929;28;20086;-62
2022/09/30 09:55:21;;;;;;;7.18;5.13;;;13.30;99.90;;;;;;5058460;28;20127;-63
2022/09/30 09:57:47;;;;;;;8.45;5.95;;;13.40;99.90;;;;;;5052667;28;20045;-63
2022/09/30 10:03:20;;;;;;;9.68;6.53;;;13.40;99.90;;;;;;5054152;28;20064;-63
2022/09/30 10:06:11;;;;;;;9.52;6.13;;;13.50;99.90;;;;;;5051435;28;20036;-63
2022/09/30 10:08:56;;;;;;;9.35;6.22;;;13.50;99.90;;;;;;5054463;28;20056;-63
2022/09/30 10:11:26;;;;;;;8.50;6.72;;;13.60;99.90;;;;;;5050444;28;20493;-63
2022/09/30 10:13:58;;;;;;;10.45;7.25;;;13.60;99.90;;;;;;5048385;28;20044;-63
2022/09/30 10:16:35;;;;;;;7.70;6.18;;;13.70;99.90;;;;;;5053360;28;20444;-62
2022/09/30 10:19:21;;;;;;;8.63;6.90;;;13.80;99.90;;;;;;5052073;28;20040;-62
2022/09/30 10:21:46;;;;;;;8.48;6.47;;;13.90;99.90;;;;;;5032215;28;20107;-63
2022/09/30 10:24:39;;;;;;;10.00;6.25;;;14.00;99.90;;;;;;5084959;28;20678;-63
2022/09/30 10:27:31;;;;;;;10.07;6.68;;;14.00;99.90;;;;;;5050812;28;20053;-64
2022/09/30 10:29:56;;;;;;;9.02;7.28;;;14.10;99.90;;;;;;5052858;28;20067;-63
2022/09/30 10:32:23;;;;;;;10.18;7.75;;;14.10;99.90;;;;;;5085504;28;20028;-63
2022/09/30 10:35:01;;;;;;;8.77;6.28;;;14.20;99.90;;;;;;5051038;28;20072;-62
2022/09/30 10:37:27;;;;;;;8.40;4.78;;;14.30;99.90;;;;;;5051448;28;20048;-62
2022/09/30 10:40:05;;;;;;;5.30;3.45;;;14.40;99.90;;;;;;5051833;28;20037;-62
2022/09/30 10:42:34;;;;;;;4.47;2.20;;;14.50;99.90;;;;;;5050607;28;20041;-63
2022/09/30 10:45:17;;;;;;;5.88;3.03;;;14.60;99.90;;;;;;5052015;28;20120;-62
2022/09/30 10:47:45;;;;;;;4.97;2.55;;;14.60;99.90;;;;;;5050484;28;20036;-63
2022/09/30 10:50:16;;;;;;;4.85;2.20;;;14.60;99.90;;;;;;5052129;28;20397;-63
2022/09/30 10:53:04;;;;;;;5.15;2.20;;;14.70;99.90;;;;;;5054290;28;20139;-63
2022/09/30 10:55:39;;;;;;;3.90;1.77;;;14.80;99.90;;;;;;5051418;28;20064;-63
2022/09/30 10:58:37;;;;;;;4.53;2.00;;;14.80;99.90;;;;;;5053812;28;20124;-63
2022/09/30 11:01:18;;;;;;;4.47;2.00;;;14.90;99.90;;;;;;5031757;28;20055;-63
2022/09/30 11:03:57;;;;;;;5.47;2.35;;;14.90;99.90;;;;;;5052537;28;20045;-63
2022/09/30 11:06:23;;;;;;;5.10;2.67;;;15.00;99.90;;;;;;5053537;28;20108;-63
2022/09/30 11:08:57;;;;;;;6.00;3.10;;;15.00;99.90;;;;;;5052733;28;20095;-63
2022/09/30 11:12:04;;;;;;;5.82;3.05;;;15.00;99.90;;;;;;5051959;28;20083;-63
2022/09/30 11:14:44;;;;;;;5.57;2.80;;;15.10;99.90;;;;;;5051992;28;20045;-63
2022/09/30 11:17:19;;;;;;;5.75;2.83;;;15.10;99.90;;;;;;5051803;28;20068;-63
2022/09/30 11:19:47;;;;;;;5.30;2.33;;;15.10;99.90;;;;;;5051712;28;20083;-63
2022/09/30 11:22:46;;;;;;;4.70;2.53;;;15.10;99.90;;;;;;5052999;28;20052;-63
2022/09/30 11:25:14;;;;;;;5.90;2.75;;;15.00;99.90;;;;;;5031875;28;20048;-63
2022/09/30 11:28:00;;;;;;;8.88;3.05;;;15.00;99.90;;;;;;5035764;28;20461;-63
2022/09/30 11:30:38;;;;;;;4.70;2.20;;;15.10;99.90;;;;;;5052023;28;20074;-63
2022/09/30 11:33:38;;;;;;;4.22;1.98;;;15.20;99.90;;;;;;5052968;28;20041;-63
2022/09/30 11:36:16;;;;;;;4.85;2.38;;;15.30;99.90;;;;;;5001341;28;20056;-63
2022/09/30 11:39:03;;;;;;;4.47;2.15;;;15.50;99.90;;;;;;5052126;28;20509;-63
2022/09/30 11:41:45;;;;;;;4.15;2.03;;;15.50;99.90;;;;;;5051441;28;20045;-63
2022/09/30 11:44:36;;;;;;;3.47;1.67;;;15.50;99.90;;;;;;5050990;28;20045;-63
2022/09/30 11:47:20;;;;;;;4.07;2.03;;;15.50;99.90;;;;;;5051234;28;20543;-63
2022/09/30 11:50:07;;;;;;;3.90;1.60;;;15.60;99.90;;;;;;5034784;28;20045;-63
2022/09/30 11:52:55;;;;;;;3.72;1.80;;;15.60;99.90;;;;;;5050653;28;20045;-63
2022/09/30 11:55:35;;;;;;;2.70;1.20;;;15.50;99.90;;;;;;5051254;28;20056;-63
2022/09/30 11:58:07;;;;;;;2.55;1.10;;;15.50;99.90;;;;;;5051841;28;20044;-63
2022/09/30 12:00:38;;;;;;;4.43;1.30;;;15.60;99.90;;;;;;5051412;28;20147;-63
2022/09/30 12:03:29;;;;;;;1.42;0.80;;;15.60;99.90;;;;;;5050320;28;20494;-63
2022/09/30 12:06:01;;;;;;;3.47;1.27;;;15.60;99.90;;;;;;5050257;28;20041;-63
2022/09/30 12:08:35;;;;;;;3.90;1.10;;;15.50;99.90;;;;;;5051085;28;20041;-63
2022/09/30 12:11:07;;;;;;;1.50;0.70;;;15.50;99.90;;;;;;5051023;28;20036;-63
2022/09/30 12:13:37;;;;;;;2.60;0.90;;;15.50;99.90;;;;;;5050432;28;20068;-63
2022/09/30 12:16:10;;;;;;;1.80;0.90;;;15.60;99.90;;;;;;5050937;28;20048;-63
2022/09/30 12:18:41;;;;;;;1.98;0.68;;;15.70;99.90;;;;;;5050084;28;20103;-63
2022/09/30 12:21:29;;;;;;;1.77;0.65;;;15.70;99.90;;;;;;5050653;28;20063;-63
2022/09/30 12:24:03;;;;;;;1.55;0.73;;;15.80;99.90;;;;;;5050779;28;20079;-63
2022/09/30 12:26:29;;;;;;;2.88;0.75;;;15.80;99.90;;;;;;5049839;28;20119;-63
2022/09/30 12:32:11;;;;;;;4.90;1.08;;;15.80;99.90;;;;;;5051963;28;20049;-63
2022/09/30 12:34:47;;;;;;;3.22;0.98;;;15.70;99.90;;;;;;5051371;28;20037;-63
2022/09/30 12:37:57;;;;;;;1.73;0.70;;;15.70;99.90;;;;;;5050602;28;20482;-63
2022/09/30 12:40:47;;;;;;;5.50;1.42;;;15.60;99.90;;;;;;5034623;28;20077;-63
2022/09/30 12:43:41;;;;;;;1.70;0.88;;;15.60;99.90;;;;;;5050424;28;20092;-64
2022/09/30 12:46:40;;;;;;;2.22;0.90;;;15.70;99.90;;;;;;5051947;28;20040;-63
2022/09/30 12:49:13;;;;;;;2.80;0.90;;;15.60;99.90;;;;;;5050190;28;20037;-63
2022/09/30 12:51:43;;;;;;;3.42;1.30;;;15.70;99.90;;;;;;5050754;28;20049;-63
2022/09/30 12:54:41;;;;;;;4.63;1.30;;;15.80;99.90;;;;;;5049942;28;20052;-64
2022/09/30 12:57:08;;;;;;;3.17;1.02;;;15.90;99.90;;;;;;5046036;28;20045;-63
2022/09/30 12:59:37;;;;;;;2.17;1.00;;;15.90;99.90;;;;;;5050574;28;20429;-63
2022/09/30 13:02:05;;;;;;;2.47;0.95;;;15.90;99.90;;;;;;5050809;28;20037;-63
2022/09/30 13:04:37;;;;;;;4.13;1.20;;;16.00;99.90;;;;;;5051844;28;20086;-63
2022/09/30 13:07:10;;;;;;;2.33;0.75;;;16.00;99.90;;;;;;5051594;28;20059;-63
2022/09/30 13:10:23;;;;;;;1.85;0.75;;;16.10;99.90;;;;;;5050987;28;20047;-63
2022/09/30 13:13:08;;;;;;;2.10;0.77;;;16.00;99.90;;;;;;5048560;28;20453;-63
2022/09/30 13:15:35;;;;;;;2.90;0.88;;;16.10;99.90;;;;;;5052163;28;20432;-63
2022/09/30 13:18:24;;;;;;;1.60;0.70;;;16.10;99.90;;;;;;5054227;28;20040;-63
2022/09/30 13:21:03;;;;;;;4.03;1.10;;;16.10;99.90;;;;;;5024658;28;20140;-63
2022/09/30 13:23:44;;;;;;;2.88;1.10;;;16.10;99.90;;;;;;5053309;28;20052;-64
2022/09/30 13:26:22;;;;;;;3.30;0.85;;;16.00;99.90;;;;;;5055649;28;20044;-63
2022/09/30 13:28:48;;;;;;;2.67;1.10;;;16.00;99.90;;;;;;5053862;28;20041;-63
2022/09/30 13:31:19;;;;;;;2.00;0.95;;;16.00;99.90;;;;;;5053265;28;20413;-63
2022/09/30 13:34:00;;;;;;;1.40;0.60;;;16.00;99.90;;;;;;5037340;28;20041;-63